sensor_id;sensor_type;location;lat;lon;timestamp;pressure;altitude;pressure_sealevel;temperature;humidity
10652;BME280;5374;42.742;23.266;2023-03-29T12:29:07;95933.16;;;10.63;29.25
10652;BME280;5374;42.742;23.266;2023-03-29T12:32:04;95923.28;;;10.47;28.33
10652;BME280;5374;42.742;23.266;2023-03-29T12:35:08;95929.84;;;10.56;29.87
10652;BME280;5374;42.742;23.266;2023-03-29T12:38:08;95931.41;;;10.69;29.94
10652;BME280;5374;42.742;23.266;2023-03-29T12:40:58;95929.56;;;10.69;29.54
10652;BME280;5374;42.742;23.266;2023-03-29T12:43:46;95921.13;;;10.72;29.03
10652;BME280;5374;42.742;23.266;2023-03-29T12:46:36;95924.91;;;10.76;29.38
10652;BME280;5374;42.742;23.266;2023-03-29T12:49:27;95923.44;;;10.69;28.63
10652;BME280;5374;42.742;23.266;2023-03-29T12:52:23;95918.47;;;10.72;29.54
10652;BME280;5374;42.742;23.266;2023-03-29T12:55:27;95919.50;;;10.71;29.45
10652;BME280;5374;42.742;23.266;2023-03-29T12:58:27;95887.47;;;10.61;29.94
10652;BME280;5374;42.742;23.266;2023-03-29T13:01:28;95922.66;;;10.85;29.66
10652;BME280;5374;42.742;23.266;2023-03-29T13:04:19;95926.88;;;10.98;28.97
10652;BME280;5374;42.742;23.266;2023-03-29T13:07:13;95927.53;;;11.05;29.26
10652;BME280;5374;42.742;23.266;2023-03-29T13:10:02;95929.28;;;10.82;29.36
10652;BME280;5374;42.742;23.266;2023-03-29T13:12:53;95926.22;;;10.62;28.53
10652;BME280;5374;42.742;23.266;2023-03-29T13:15:42;95925.94;;;10.47;29.27
10652;BME280;5374;42.742;23.266;2023-03-29T13:18:38;95926.38;;;10.27;29.30
10652;BME280;5374;42.742;23.266;2023-03-29T13:21:34;95937.81;;;10.04;29.48
10652;BME280;5374;42.742;23.266;2023-03-29T13:24:36;95935.72;;;10.06;29.49
10652;BME280;5374;42.742;23.266;2023-03-29T13:27:33;95931.69;;;10.15;29.31
10652;BME280;5374;42.742;23.266;2023-03-29T13:30:31;95933.19;;;10.11;28.95
10652;BME280;5374;42.742;23.266;2023-03-29T13:33:37;95937.47;;;10.01;28.82
10652;BME280;5374;42.742;23.266;2023-03-29T13:36:49;95934.34;;;10.04;29.44
10652;BME280;5374;42.742;23.266;2023-03-29T13:39:48;95936.88;;;9.99;28.94
10652;BME280;5374;42.742;23.266;2023-03-29T13:42:38;95930.13;;;9.79;29.02
10652;BME280;5374;42.742;23.266;2023-03-29T13:45:28;95926.88;;;9.77;28.83
10652;BME280;5374;42.742;23.266;2023-03-29T13:48:24;95893.81;;;9.56;28.70
10652;BME280;5374;42.742;23.266;2023-03-29T13:51:25;95912.69;;;9.72;29.45
10652;BME280;5374;42.742;23.266;2023-03-29T13:54:22;95915.00;;;9.80;30.22
10652;BME280;5374;42.742;23.266;2023-03-29T13:57:15;95921.59;;;9.89;29.12
10652;BME280;5374;42.742;23.266;2023-03-29T14:00:08;95932.06;;;9.95;28.62
10652;BME280;5374;42.742;23.266;2023-03-29T14:03:04;95915.44;;;10.00;27.85
10652;BME280;5374;42.742;23.266;2023-03-29T14:05:56;95912.56;;;10.02;28.21
10652;BME280;5374;42.742;23.266;2023-03-29T14:08:46;95919.59;;;10.08;28.36
10652;BME280;5374;42.742;23.266;2023-03-29T14:11:37;95906.44;;;10.01;28.96
10652;BME280;5374;42.742;23.266;2023-03-29T14:14:25;95920.28;;;10.03;28.29
10652;BME280;5374;42.742;23.266;2023-03-29T14:17:16;95932.84;;;9.96;28.70
10652;BME280;5374;42.742;23.266;2023-03-29T14:20:06;95930.13;;;9.91;28.35
10652;BME280;5374;42.742;23.266;2023-03-29T14:22:55;95929.53;;;9.89;29.22
10652;BME280;5374;42.742;23.266;2023-03-29T14:25:42;95870.09;;;9.38;29.58
10652;BME280;5374;42.742;23.266;2023-03-29T14:28:32;95924.31;;;9.94;29.78
10652;BME280;5374;42.742;23.266;2023-03-29T14:31:20;95920.88;;;9.93;29.55
10652;BME280;5374;42.742;23.266;2023-03-29T14:34:11;95924.47;;;9.87;29.30
10652;BME280;5374;42.742;23.266;2023-03-29T14:36:59;95931.63;;;9.87;29.39
10652;BME280;5374;42.742;23.266;2023-03-29T14:39:46;95929.06;;;9.80;29.18
10652;BME280;5374;42.742;23.266;2023-03-29T14:42:36;95910.16;;;9.77;29.87
10652;BME280;5374;42.742;23.266;2023-03-29T14:45:25;95939.78;;;9.97;29.12
10652;BME280;5374;42.742;23.266;2023-03-29T14:48:13;95934.84;;;9.89;29.40
10652;BME280;5374;42.742;23.266;2023-03-29T14:51:01;95940.38;;;9.87;29.25
10652;BME280;5374;42.742;23.266;2023-03-29T14:53:49;95939.22;;;9.72;29.02
10652;BME280;5374;42.742;23.266;2023-03-29T14:56:36;95942.59;;;9.67;28.82
10652;BME280;5374;42.742;23.266;2023-03-29T14:59:28;95939.59;;;9.64;29.45
10652;BME280;5374;42.742;23.266;2023-03-29T15:02:24;95940.03;;;9.60;29.20
10652;BME280;5374;42.742;23.266;2023-03-29T15:05:22;95949.97;;;9.65;29.75
10652;BME280;5374;42.742;23.266;2023-03-29T15:08:13;95938.56;;;9.65;30.00
10652;BME280;5374;42.742;23.266;2023-03-29T15:11:08;95937.41;;;9.60;29.89
10652;BME280;5374;42.742;23.266;2023-03-29T15:14:00;95948.00;;;9.60;30.09
10652;BME280;5374;42.742;23.266;2023-03-29T15:16:49;95948.94;;;9.66;30.39
10652;BME280;5374;42.742;23.266;2023-03-29T15:19:39;95951.78;;;9.53;30.38
10652;BME280;5374;42.742;23.266;2023-03-29T15:22:33;95951.94;;;9.46;30.66
10652;BME280;5374;42.742;23.266;2023-03-29T15:25:20;95961.78;;;9.27;30.80
10652;BME280;5374;42.742;23.266;2023-03-29T15:28:22;95965.81;;;9.18;31.40
10652;BME280;5374;42.742;23.266;2023-03-29T15:31:13;95963.34;;;9.05;31.14
10652;BME280;5374;42.742;23.266;2023-03-29T15:34:02;95972.69;;;8.96;31.36
10652;BME280;5374;42.742;23.266;2023-03-29T15:36:51;95961.94;;;8.79;31.71
10652;BME280;5374;42.742;23.266;2023-03-29T15:39:41;95962.91;;;8.67;32.12
10652;BME280;5374;42.742;23.266;2023-03-29T15:42:29;95970.22;;;8.53;31.93
10652;BME280;5374;42.742;23.266;2023-03-29T15:45:17;95973.44;;;8.55;32.47
10652;BME280;5374;42.742;23.266;2023-03-29T15:48:13;95954.38;;;8.35;32.53
10652;BME280;5374;42.742;23.266;2023-03-29T15:51:00;95962.53;;;8.33;31.91
10652;BME280;5374;42.742;23.266;2023-03-29T15:53:49;95974.63;;;8.41;32.24
10652;BME280;5374;42.742;23.266;2023-03-29T15:56:40;95981.53;;;8.42;32.30
10652;BME280;5374;42.742;23.266;2023-03-29T15:59:31;95974.19;;;8.44;32.39
10652;BME280;5374;42.742;23.266;2023-03-29T16:02:20;95975.66;;;8.40;32.62
10652;BME280;5374;42.742;23.266;2023-03-29T16:05:09;95979.47;;;8.44;32.83
10652;BME280;5374;42.742;23.266;2023-03-29T16:07:57;95985.00;;;8.42;32.94
10652;BME280;5374;42.742;23.266;2023-03-29T16:10:46;95976.97;;;8.31;33.12
10652;BME280;5374;42.742;23.266;2023-03-29T16:13:34;95986.00;;;8.23;33.53
10652;BME280;5374;42.742;23.266;2023-03-29T16:16:21;95980.94;;;8.21;33.72
10652;BME280;5374;42.742;23.266;2023-03-29T16:19:09;95982.19;;;8.19;33.97
10652;BME280;5374;42.742;23.266;2023-03-29T16:21:57;95980.44;;;8.13;34.41
10652;BME280;5374;42.742;23.266;2023-03-29T16:24:44;95982.72;;;8.09;34.96
10652;BME280;5374;42.742;23.266;2023-03-29T16:27:33;95990.44;;;8.11;35.15
10652;BME280;5374;42.742;23.266;2023-03-29T16:30:20;95982.28;;;8.12;35.62
10652;BME280;5374;42.742;23.266;2023-03-29T16:33:10;95982.41;;;7.99;35.54
10652;BME280;5374;42.742;23.266;2023-03-29T16:35:57;95970.16;;;7.86;35.48
10652;BME280;5374;42.742;23.266;2023-03-29T16:38:44;95980.13;;;7.84;35.72
10652;BME280;5374;42.742;23.266;2023-03-29T16:41:32;95994.66;;;7.94;35.46
10652;BME280;5374;42.742;23.266;2023-03-29T16:44:20;96002.91;;;7.85;35.76
10652;BME280;5374;42.742;23.266;2023-03-29T16:47:09;96004.56;;;7.80;35.93
10652;BME280;5374;42.742;23.266;2023-03-29T16:49:57;95980.38;;;7.58;36.05
10652;BME280;5374;42.742;23.266;2023-03-29T16:52:45;96001.81;;;7.68;36.43
10652;BME280;5374;42.742;23.266;2023-03-29T16:55:33;96010.03;;;7.60;36.78
10652;BME280;5374;42.742;23.266;2023-03-29T16:58:21;95990.63;;;7.48;36.73
10652;BME280;5374;42.742;23.266;2023-03-29T17:01:11;96009.25;;;7.60;36.69
10652;BME280;5374;42.742;23.266;2023-03-29T17:03:59;95988.34;;;7.51;36.70
10652;BME280;5374;42.742;23.266;2023-03-29T17:06:46;95995.84;;;7.54;36.47
10652;BME280;5374;42.742;23.266;2023-03-29T17:09:33;95977.28;;;7.43;35.88
10652;BME280;5374;42.742;23.266;2023-03-29T17:12:21;95999.94;;;7.50;35.92
10652;BME280;5374;42.742;23.266;2023-03-29T17:15:09;96003.63;;;7.49;35.54
10652;BME280;5374;42.742;23.266;2023-03-29T17:17:57;95999.34;;;7.48;35.52
10652;BME280;5374;42.742;23.266;2023-03-29T17:20:44;96009.34;;;7.46;35.17
10652;BME280;5374;42.742;23.266;2023-03-29T17:23:32;96012.25;;;7.38;35.36
10652;BME280;5374;42.742;23.266;2023-03-29T17:26:20;95997.38;;;7.19;35.37
10652;BME280;5374;42.742;23.266;2023-03-29T17:29:08;96020.44;;;7.30;35.69
10652;BME280;5374;42.742;23.266;2023-03-29T17:31:57;96014.38;;;7.23;35.72
10652;BME280;5374;42.742;23.266;2023-03-29T17:34:45;96021.88;;;7.26;35.54
10652;BME280;5374;42.742;23.266;2023-03-29T17:37:33;95989.59;;;6.99;35.78
10652;BME280;5374;42.742;23.266;2023-03-29T17:40:20;96031.03;;;7.24;35.82
10652;BME280;5374;42.742;23.266;2023-03-29T17:43:08;96035.97;;;7.20;35.93
10652;BME280;5374;42.742;23.266;2023-03-29T17:45:55;96015.75;;;7.01;36.01
10652;BME280;5374;42.742;23.266;2023-03-29T17:48:45;96034.00;;;7.09;36.23
10652;BME280;5374;42.742;23.266;2023-03-29T17:51:33;96026.28;;;7.07;36.23
10652;BME280;5374;42.742;23.266;2023-03-29T17:54:21;96036.47;;;7.04;36.42
10652;BME280;5374;42.742;23.266;2023-03-29T17:57:19;96040.13;;;7.03;36.40
10652;BME280;5374;42.742;23.266;2023-03-29T18:00:09;96039.75;;;6.99;36.75
10652;BME280;5374;42.742;23.266;2023-03-29T18:02:57;96027.59;;;6.92;36.80
10652;BME280;5374;42.742;23.266;2023-03-29T18:05:47;96043.63;;;6.97;36.93
10652;BME280;5374;42.742;23.266;2023-03-29T18:08:37;96041.81;;;6.91;37.12
10652;BME280;5374;42.742;23.266;2023-03-29T18:11:25;96041.63;;;6.85;37.33
10652;BME280;5374;42.742;23.266;2023-03-29T18:14:13;96029.72;;;6.76;37.18
10652;BME280;5374;42.742;23.266;2023-03-29T18:17:01;96043.44;;;6.92;37.20
10652;BME280;5374;42.742;23.266;2023-03-29T18:19:48;96040.19;;;6.90;36.96
10652;BME280;5374;42.742;23.266;2023-03-29T18:22:36;96053.19;;;6.91;37.03
10652;BME280;5374;42.742;23.266;2023-03-29T18:25:24;96047.72;;;6.86;37.06
10652;BME280;5374;42.742;23.266;2023-03-29T18:28:14;96054.63;;;6.87;37.07
10652;BME280;5374;42.742;23.266;2023-03-29T18:31:03;96052.63;;;6.82;37.20
10652;BME280;5374;42.742;23.266;2023-03-29T18:33:50;96058.09;;;6.81;37.49
10652;BME280;5374;42.742;23.266;2023-03-29T18:36:38;96056.94;;;6.77;37.48
10652;BME280;5374;42.742;23.266;2023-03-29T18:39:25;96056.13;;;6.76;37.63
10652;BME280;5374;42.742;23.266;2023-03-29T18:42:15;96053.28;;;6.71;37.72
10652;BME280;5374;42.742;23.266;2023-03-29T18:45:02;96045.22;;;6.60;38.02
10652;BME280;5374;42.742;23.266;2023-03-29T18:47:50;96053.09;;;6.66;38.20
10652;BME280;5374;42.742;23.266;2023-03-29T18:50:37;96052.69;;;6.69;38.38
10652;BME280;5374;42.742;23.266;2023-03-29T18:53:24;96038.72;;;6.62;38.55
10652;BME280;5374;42.742;23.266;2023-03-29T18:56:13;96050.88;;;6.63;38.89
10652;BME280;5374;42.742;23.266;2023-03-29T18:59:02;96052.09;;;6.61;38.96
10652;BME280;5374;42.742;23.266;2023-03-29T19:01:53;96042.03;;;6.51;39.04
10652;BME280;5374;42.742;23.266;2023-03-29T19:04:41;96053.78;;;6.48;38.95
10652;BME280;5374;42.742;23.266;2023-03-29T19:07:28;96039.81;;;6.41;39.61
10652;BME280;5374;42.742;23.266;2023-03-29T19:10:16;96046.91;;;6.41;39.63
10652;BME280;5374;42.742;23.266;2023-03-29T19:13:05;96051.59;;;6.39;39.71
10652;BME280;5374;42.742;23.266;2023-03-29T19:15:53;96053.19;;;6.40;39.38
10652;BME280;5374;42.742;23.266;2023-03-29T19:18:43;96046.91;;;6.41;39.87
10652;BME280;5374;42.742;23.266;2023-03-29T19:21:30;96056.25;;;6.43;39.77
10652;BME280;5374;42.742;23.266;2023-03-29T19:24:18;96048.34;;;6.37;39.62
10652;BME280;5374;42.742;23.266;2023-03-29T19:27:05;96033.59;;;6.23;39.98
10652;BME280;5374;42.742;23.266;2023-03-29T19:29:53;96046.56;;;6.31;40.17
10652;BME280;5374;42.742;23.266;2023-03-29T19:32:41;96042.91;;;6.32;40.18
10652;BME280;5374;42.742;23.266;2023-03-29T19:35:28;96047.78;;;6.22;40.66
10652;BME280;5374;42.742;23.266;2023-03-29T19:38:16;96030.75;;;6.17;40.68
10652;BME280;5374;42.742;23.266;2023-03-29T19:41:05;96031.56;;;6.11;40.97
10652;BME280;5374;42.742;23.266;2023-03-29T19:43:53;96033.81;;;6.14;41.00
10652;BME280;5374;42.742;23.266;2023-03-29T19:46:40;96039.06;;;6.14;41.32
10652;BME280;5374;42.742;23.266;2023-03-29T19:49:28;96040.28;;;6.12;41.50
10652;BME280;5374;42.742;23.266;2023-03-29T19:52:16;96043.78;;;6.06;41.89
10652;BME280;5374;42.742;23.266;2023-03-29T19:55:03;96046.63;;;6.04;41.79
10652;BME280;5374;42.742;23.266;2023-03-29T19:57:51;96034.25;;;5.98;41.72
10652;BME280;5374;42.742;23.266;2023-03-29T20:00:38;96040.75;;;6.02;41.71
10652;BME280;5374;42.742;23.266;2023-03-29T20:03:26;96024.94;;;5.89;41.79
10652;BME280;5374;42.742;23.266;2023-03-29T20:06:16;96053.31;;;6.00;41.81
10652;BME280;5374;42.742;23.266;2023-03-29T20:09:03;95996.34;;;5.66;41.80
10652;BME280;5374;42.742;23.266;2023-03-29T20:11:52;96051.47;;;6.07;42.06
10652;BME280;5374;42.742;23.266;2023-03-29T20:14:39;96055.94;;;6.00;42.29
10652;BME280;5374;42.742;23.266;2023-03-29T20:17:27;95991.72;;;5.62;42.46
10652;BME280;5374;42.742;23.266;2023-03-29T20:20:15;96052.91;;;5.97;42.51
10652;BME280;5374;42.742;23.266;2023-03-29T20:23:03;96048.25;;;5.99;42.57
10652;BME280;5374;42.742;23.266;2023-03-29T20:25:50;96036.88;;;5.98;42.73
10652;BME280;5374;42.742;23.266;2023-03-29T20:28:38;96047.03;;;6.01;42.97
10652;BME280;5374;42.742;23.266;2023-03-29T20:31:25;96046.63;;;6.04;43.21
10652;BME280;5374;42.742;23.266;2023-03-29T20:34:14;96042.78;;;6.00;42.98
10652;BME280;5374;42.742;23.266;2023-03-29T20:37:02;96028.78;;;5.93;43.06
10652;BME280;5374;42.742;23.266;2023-03-29T20:39:52;96035.66;;;6.01;43.26
10652;BME280;5374;42.742;23.266;2023-03-29T20:42:41;96043.75;;;6.12;43.06
10652;BME280;5374;42.742;23.266;2023-03-29T20:45:30;96053.88;;;6.15;43.34
10652;BME280;5374;42.742;23.266;2023-03-29T20:48:18;96053.88;;;6.15;43.62
10652;BME280;5374;42.742;23.266;2023-03-29T20:51:06;96050.44;;;6.15;43.69
10652;BME280;5374;42.742;23.266;2023-03-29T20:53:56;96052.25;;;6.14;43.73
10652;BME280;5374;42.742;23.266;2023-03-29T20:56:48;96046.78;;;6.16;43.97
10652;BME280;5374;42.742;23.266;2023-03-29T20:59:36;96038.88;;;6.23;43.74
10652;BME280;5374;42.742;23.266;2023-03-29T21:02:23;96036.03;;;6.11;44.12
10652;BME280;5374;42.742;23.266;2023-03-29T21:05:11;96046.16;;;6.21;44.29
10652;BME280;5374;42.742;23.266;2023-03-29T21:07:58;96042.72;;;6.27;44.45
10652;BME280;5374;42.742;23.266;2023-03-29T21:10:45;96039.06;;;6.28;44.57
10652;BME280;5374;42.742;23.266;2023-03-29T21:13:34;96044.13;;;6.29;44.14
10652;BME280;5374;42.742;23.266;2023-03-29T21:16:21;96027.91;;;6.19;44.14
10652;BME280;5374;42.742;23.266;2023-03-29T21:19:09;96031.97;;;6.22;43.74
10652;BME280;5374;42.742;23.266;2023-03-29T21:21:56;96040.84;;;6.34;44.20
10652;BME280;5374;42.742;23.266;2023-03-29T21:24:43;96049.34;;;6.36;44.16
10652;BME280;5374;42.742;23.266;2023-03-29T21:27:31;96032.97;;;6.27;44.24
10652;BME280;5374;42.742;23.266;2023-03-29T21:30:19;96037.19;;;6.35;44.11
10652;BME280;5374;42.742;23.266;2023-03-29T21:33:06;96034.38;;;6.30;44.16
10652;BME280;5374;42.742;23.266;2023-03-29T21:35:53;96036.59;;;6.33;43.90
10652;BME280;5374;42.742;23.266;2023-03-29T21:38:41;96026.47;;;6.23;44.09
10652;BME280;5374;42.742;23.266;2023-03-29T21:41:28;96017.34;;;6.26;43.75
10652;BME280;5374;42.742;23.266;2023-03-29T21:44:15;96023.41;;;6.33;43.88
10652;BME280;5374;42.742;23.266;2023-03-29T21:47:04;96029.66;;;6.38;44.29
10652;BME280;5374;42.742;23.266;2023-03-29T21:49:51;96020.13;;;6.37;44.22
10652;BME280;5374;42.742;23.266;2023-03-29T21:52:39;96027.44;;;6.35;44.25
10652;BME280;5374;42.742;23.266;2023-03-29T21:55:26;96010.03;;;6.28;44.25
10652;BME280;5374;42.742;23.266;2023-03-29T21:58:13;96016.09;;;6.35;44.46
10652;BME280;5374;42.742;23.266;2023-03-29T22:01:00;96012.81;;;6.39;44.49
10652;BME280;5374;42.742;23.266;2023-03-29T22:03:49;96034.91;;;6.51;44.78
10652;BME280;5374;42.742;23.266;2023-03-29T22:06:36;96010.38;;;6.44;44.36
10652;BME280;5374;42.742;23.266;2023-03-29T22:09:23;96008.97;;;6.42;44.08
10652;BME280;5374;42.742;23.266;2023-03-29T22:12:11;96008.94;;;6.55;44.02
10652;BME280;5374;42.742;23.266;2023-03-29T22:14:59;95978.50;;;6.46;44.01
10652;BME280;5374;42.742;23.266;2023-03-29T22:17:46;96024.50;;;6.63;43.89
10652;BME280;5374;42.742;23.266;2023-03-29T22:20:34;96005.41;;;6.68;44.07
10652;BME280;5374;42.742;23.266;2023-03-29T22:23:21;96008.75;;;6.50;44.40
10652;BME280;5374;42.742;23.266;2023-03-29T22:26:11;96014.41;;;6.54;44.11
10652;BME280;5374;42.742;23.266;2023-03-29T22:28:59;96021.66;;;6.58;44.21
10652;BME280;5374;42.742;23.266;2023-03-29T22:31:46;96006.63;;;6.65;44.07
10652;BME280;5374;42.742;23.266;2023-03-29T22:34:34;96007.03;;;6.62;44.35
10652;BME280;5374;42.742;23.266;2023-03-29T22:37:22;96004.22;;;6.57;44.34
10652;BME280;5374;42.742;23.266;2023-03-29T22:40:11;96001.75;;;6.62;44.39
10652;BME280;5374;42.742;23.266;2023-03-29T22:42:59;96017.84;;;6.54;43.91
10652;BME280;5374;42.742;23.266;2023-03-29T22:45:46;95979.97;;;6.35;43.50
10652;BME280;5374;42.742;23.266;2023-03-29T22:48:33;95998.13;;;6.57;43.65
10652;BME280;5374;42.742;23.266;2023-03-29T22:51:21;96013.09;;;6.69;43.38
10652;BME280;5374;42.742;23.266;2023-03-29T22:54:09;96016.56;;;6.70;43.37
10652;BME280;5374;42.742;23.266;2023-03-29T22:56:56;96013.72;;;6.71;43.49
10652;BME280;5374;42.742;23.266;2023-03-29T22:59:44;96016.53;;;6.76;43.18
10652;BME280;5374;42.742;23.266;2023-03-29T23:02:31;96015.66;;;6.82;43.42
10652;BME280;5374;42.742;23.266;2023-03-29T23:05:18;96007.75;;;6.82;43.23
10652;BME280;5374;42.742;23.266;2023-03-29T23:08:05;96004.50;;;6.80;43.67
10652;BME280;5374;42.742;23.266;2023-03-29T23:10:54;96013.63;;;6.84;43.66
10652;BME280;5374;42.742;23.266;2023-03-29T23:13:41;96010.81;;;6.79;43.85
10652;BME280;5374;42.742;23.266;2023-03-29T23:16:28;96008.16;;;6.79;44.24
10652;BME280;5374;42.742;23.266;2023-03-29T23:19:15;96000.69;;;6.76;45.03
10652;BME280;5374;42.742;23.266;2023-03-29T23:22:02;96010.47;;;6.69;45.30
10652;BME280;5374;42.742;23.266;2023-03-29T23:24:49;96016.53;;;6.76;45.43
10652;BME280;5374;42.742;23.266;2023-03-29T23:27:38;96001.75;;;6.69;45.74
10652;BME280;5374;42.742;23.266;2023-03-29T23:30:26;96013.22;;;6.81;45.57
10652;BME280;5374;42.742;23.266;2023-03-29T23:33:16;96010.38;;;6.82;45.54
10652;BME280;5374;42.742;23.266;2023-03-29T23:36:05;96010.56;;;6.88;45.95
10652;BME280;5374;42.742;23.266;2023-03-29T23:38:53;95990.72;;;6.78;46.25
10652;BME280;5374;42.742;23.266;2023-03-29T23:41:40;96000.63;;;6.83;47.09
10652;BME280;5374;42.742;23.266;2023-03-29T23:44:29;96004.25;;;6.89;47.74
10652;BME280;5374;42.742;23.266;2023-03-29T23:47:16;96006.47;;;6.92;47.68
10652;BME280;5374;42.742;23.266;2023-03-29T23:50:05;95993.94;;;6.80;47.72
10652;BME280;5374;42.742;23.266;2023-03-29T23:52:54;95994.16;;;6.79;48.01
10652;BME280;5374;42.742;23.266;2023-03-29T23:55:41;95990.06;;;6.83;48.00
10652;BME280;5374;42.742;23.266;2023-03-29T23:58:29;95997.75;;;6.91;48.24
